No particular awareness of the weather is required.    There are no Weather-warnings
 Banner
iom-flag.gif  iom-flag.gif


Ballaugh webcam more information Ballaugh webcam


Thunder radar more information blitzortung!


Rain radar more information rain snow radar


Visit our other weather sites:

Template documentation
and downloads

And another site



Nearby METAR Reports

   
EGNS - Isle Of Man/Rona, United Kingdom
Distance from station: SSW 16 mi
Updated: 12-08-2020 08:50
Few Clouds  
Few Clouds  
   Wind: NE 5.8 mph
Wind: NE 5.8 mph
Temperature: 20°C
Dew Point: 17°C
Humidity: 83%
Barometer: 1014 hPa
Clouds: Few Clouds
Visibility: More than 6 mi
Cloud details: Few Clouds 500 ft
EGNS 120750Z 05005KT 340V140 9999 FEW005 20/17 Q1014 NOSIG
EGAC - Belfast Harbour, United Kingdom
Distance from station: WNW 57 mi
Updated: 12-08-2020 09:20
Clear  
Clear  
   Wind: North 5.8 mph
Wind: North 5.8 mph
Temperature: 19°C
Dew Point: 15°C
Humidity: 78%
Barometer: 1015 hPa
Clouds: Clear
Visibility: More than 6 mi
Cloud details: Clear ft
EGAC 120820Z AUTO 35005KT 310V040 9999 NCD 19/15 Q1015
EGAA - Belfast/Aldergro, United Kingdom
Distance from station: WNW 71 mi
Updated: 12-08-2020 09:20
Mostly Cloudy  
Mostly Cloudy  
   Wind: NNW 8.1 mph
Wind: NNW 8.1 mph
Temperature: 15°C
Dew Point: 14°C
Humidity: 94%
Barometer: 1016 hPa
Clouds: Mostly Cloudy
Visibility: More than 6 mi
Cloud details: Mostly Cloudy 400 ft,
Mostly Cloudy 3200 ft
EGAA 120820Z 33007KT 9999 BKN004 BKN032 15/14 Q1016
EGNH - Blackpool Airpor, United Kingdom
Distance from station: ESE 73 mi
Updated: 12-08-2020 09:20
Partly Cloudy  
Partly Cloudy  
   Wind: varies 3.5 mph
Wind: varies 3.5 mph
Temperature: 23°C
Dew Point: 20°C
Humidity: 83%
Barometer: 1014 hPa
Clouds: Partly Cloudy
Visibility: 5 mi
Cloud details: Partly Cloudy ft
EGNH 120820Z VRB03KT 8000 NSC 23/20 Q1014
EGOV - Valley Raf, United Kingdom
Distance from station: S 73 mi
Updated: 12-08-2020 08:50
Clear  
Clear  
   Wind: North 6.9 mph
Wind: North 6.9 mph
Temperature: 18°C
Dew Point: 16°C
Humidity: 88%
Barometer: 1014 hPa
Visibility: More than 6 mi
Cloud details: Clear ft
EGOV 120750Z 35006KT CAVOK 18/16 Q1014 NOSIG RMK BLU BLU
EGPK - Prestwick(Civ/Na, United Kingdom
Distance from station: N 82 mi
Updated: 12-08-2020 09:20
Few Clouds  
Few Clouds  
   Wind: North 4.6 mph
Wind: North 4.6 mph
Temperature: 21°C
Dew Point: 18°C
Humidity: 83%
Barometer: 1016 hPa
Clouds: Few Clouds
Visibility: More than 6 mi
Cloud details: Few Clouds 2000 ft
EGPK 120820Z 35004KT 9999 FEW020 21/18 Q1016
EIDW - Dublin Airport, Ireland
Distance from station: SW 93 mi
Updated: 12-08-2020 09:30
Mostly Cloudy  
Mostly Cloudy  
   Wind: varies 1.2 mph
Wind: varies 1.2 mph
Temperature: 21°C
Dew Point: 17°C
Humidity: 78%
Barometer: 1015 hPa
Clouds: Mostly Cloudy
Visibility: More than 6 mi
Cloud details: Few Clouds 1300 ft,
Mostly Cloudy 2000 ft
EIDW 120830Z VRB01KT 9999 FEW013 BKN020 21/17 Q1015 NOSIG
EGGP - Liverpool Airpor, United Kingdom
Distance from station: SE 98 mi
Updated: 12-08-2020 09:20
Partly Cloudy  
Partly Cloudy  
   Wind: varies 3.5 mph
Wind: varies 3.5 mph
Temperature: 22°C
Dew Point: 19°C
Humidity: 83%
Barometer: 1014 hPa
Clouds: Partly Cloudy
Visibility: 4 mi
Cloud details: Partly Cloudy ft
EGGP 120820Z VRB03KT 7000 NSC 22/19 Q1014
EGPF - Glasgow Airport, United Kingdom
Distance from station: N 107 mi
Updated: 12-08-2020 09:20
Overcast  
Overcast  
   Wind: ENE 6.9 mph
Wind: ENE 6.9 mph
Temperature: 20°C
Dew Point: 17°C
Humidity: 83%
Barometer: 1016 hPa
Clouds: Overcast
Visibility: More than 6 mi
Cloud details: Partly Cloudy 1200 ft,
Overcast 3300 ft
EGPF 120820Z AUTO 06006KT 010V080 9999 SCT012 OVC033 20/17 Q1016
EGCC - Manchester Intl, United Kingdom
Distance from station: SE 114 mi
Updated: 12-08-2020 09:20
Clear  
Clear  
   Wind: varies 2.3 mph
Wind: varies 2.3 mph
Temperature: 22°C
Dew Point: 19°C
Humidity: 83%
Barometer: 1014 hPa
Clouds: Clear
Visibility: More than 6 mi
Cloud details: Clear ft
EGCC 120820Z AUTO VRB02KT 9999 NCD 22/19 Q1014 NOSIG
EGNM - Leeds And Bradfo, United Kingdom
Distance from station: ESE 122 mi
Updated: 12-08-2020 09:20
Haze, Few Clouds  
Haze, Few Clouds  
   Wind: varies 2.3 mph
Wind: varies 2.3 mph
Temperature: 20°C
Dew Point: 17°C
Humidity: 83%
Barometer: 1016 hPa
Clouds: Few Clouds
Visibility: 3 mi
Cloud details: Few Clouds 1500 ft
EGNM 120820Z VRB02KT 4200 HZ FEW015 20/17 Q1016
 

Script developed by  Saratoga-weather.org Adapted for the template by  Weerstation Leuven

You find our weather info also at:

UK Metoffice

WeatherCloud

WeatherlinkIP

Equipment we use:

Weather-station
Davis VP2

Weather-program
Weather Display

Weather-server
My Computer

Provider
Fasthosts

Davis VP2

Weather Display

My Computer

Fasthosts

 Banner1
iom-flag.gif  iom-flag.gif
Flag Counter 

Hits since site created in 2003